sensor_id;sensor_type;location;lat;lon;timestamp;pressure;altitude;pressure_sealevel;temperature;humidity
74680;BME280;63211;48.548;2.704;2023-02-08T00:00:20;102750.56;;;17.89;45.32
74680;BME280;63211;48.548;2.704;2023-02-08T00:02:47;102748.50;;;17.91;45.43
74680;BME280;63211;48.548;2.704;2023-02-08T00:05:14;102749.38;;;17.92;45.13
74680;BME280;63211;48.548;2.704;2023-02-08T00:07:41;102752.78;;;17.94;44.34
74680;BME280;63211;48.548;2.704;2023-02-08T00:10:09;102744.78;;;17.92;43.65
74680;BME280;63211;48.548;2.704;2023-02-08T00:12:36;102743.91;;;17.92;42.91
74680;BME280;63211;48.548;2.704;2023-02-08T00:15:03;102741.03;;;17.93;42.71
74680;BME280;63211;48.548;2.704;2023-02-08T00:17:30;102742.91;;;17.93;42.71
74680;BME280;63211;48.548;2.704;2023-02-08T00:19:56;102738.47;;;17.92;44.74
74680;BME280;63211;48.548;2.704;2023-02-08T00:22:23;102728.09;;;17.87;45.27
74680;BME280;63211;48.548;2.704;2023-02-08T00:24:50;102733.91;;;17.84;45.35
74680;BME280;63211;48.548;2.704;2023-02-08T00:27:18;102732.53;;;17.80;45.10
74680;BME280;63211;48.548;2.704;2023-02-08T00:29:45;102731.34;;;17.74;44.86
74680;BME280;63211;48.548;2.704;2023-02-08T00:32:11;102726.41;;;17.70;45.00
74680;BME280;63211;48.548;2.704;2023-02-08T00:34:38;102725.06;;;17.66;44.66
74680;BME280;63211;48.548;2.704;2023-02-08T00:37:05;102718.06;;;17.63;44.77
74680;BME280;63211;48.548;2.704;2023-02-08T00:39:31;102720.66;;;17.65;44.93
74680;BME280;63211;48.548;2.704;2023-02-08T00:41:58;102713.31;;;17.65;43.36
74680;BME280;63211;48.548;2.704;2023-02-08T00:44:26;102714.66;;;17.69;42.73
74680;BME280;63211;48.548;2.704;2023-02-08T00:46:53;102713.63;;;17.70;42.30
74680;BME280;63211;48.548;2.704;2023-02-08T00:49:19;102710.75;;;17.72;41.97
74680;BME280;63211;48.548;2.704;2023-02-08T00:51:46;102717.03;;;17.72;41.54
74680;BME280;63211;48.548;2.704;2023-02-08T00:54:13;102722.50;;;17.72;41.64
74680;BME280;63211;48.548;2.704;2023-02-08T00:56:40;102712.28;;;17.74;41.35
74680;BME280;63211;48.548;2.704;2023-02-08T00:59:07;102711.41;;;17.74;41.18
74680;BME280;63211;48.548;2.704;2023-02-08T01:01:35;102714.84;;;17.76;41.47
74680;BME280;63211;48.548;2.704;2023-02-08T01:04:02;102705.81;;;17.75;41.17
74680;BME280;63211;48.548;2.704;2023-02-08T01:06:29;102712.09;;;17.76;40.95
74680;BME280;63211;48.548;2.704;2023-02-08T01:08:56;102721.13;;;17.76;40.84
74680;BME280;63211;48.548;2.704;2023-02-08T01:11:24;102725.56;;;17.77;40.70
74680;BME280;63211;48.548;2.704;2023-02-08T01:13:51;102724.72;;;17.77;40.78
74680;BME280;63211;48.548;2.704;2023-02-08T01:16:20;102719.09;;;17.78;43.55
74680;BME280;63211;48.548;2.704;2023-02-08T01:18:50;102721.63;;;17.72;44.94
74680;BME280;63211;48.548;2.704;2023-02-08T01:21:19;102722.66;;;17.71;45.20
74680;BME280;63211;48.548;2.704;2023-02-08T01:23:46;102722.16;;;17.67;45.23
74680;BME280;63211;48.548;2.704;2023-02-08T01:26:14;102726.94;;;17.65;44.82
74680;BME280;63211;48.548;2.704;2023-02-08T01:28:42;102724.69;;;17.61;44.89
74680;BME280;63211;48.548;2.704;2023-02-08T01:31:11;102719.41;;;17.59;44.71
74680;BME280;63211;48.548;2.704;2023-02-08T01:33:38;102721.63;;;17.56;44.71
74680;BME280;63211;48.548;2.704;2023-02-08T01:36:07;102719.06;;;17.54;44.65
74680;BME280;63211;48.548;2.704;2023-02-08T01:38:35;102716.69;;;17.59;43.99
74680;BME280;63211;48.548;2.704;2023-02-08T01:41:03;102720.09;;;17.61;42.44
74680;BME280;63211;48.548;2.704;2023-02-08T01:43:32;102717.22;;;17.63;41.94
74680;BME280;63211;48.548;2.704;2023-02-08T01:45:59;102711.63;;;17.64;41.07
74680;BME280;63211;48.548;2.704;2023-02-08T01:48:28;102714.34;;;17.64;40.94
74680;BME280;63211;48.548;2.704;2023-02-08T01:50:58;102713.47;;;17.64;40.59
74680;BME280;63211;48.548;2.704;2023-02-08T01:53:29;102710.41;;;17.67;40.78
74680;BME280;63211;48.548;2.704;2023-02-08T01:55:59;102718.56;;;17.67;40.53
74680;BME280;63211;48.548;2.704;2023-02-08T01:58:28;102710.41;;;17.67;40.40
74680;BME280;63211;48.548;2.704;2023-02-08T02:00:56;102714.81;;;17.68;40.42
74680;BME280;63211;48.548;2.704;2023-02-08T02:03:23;102708.34;;;17.69;40.75
74680;BME280;63211;48.548;2.704;2023-02-08T02:05:53;102718.22;;;17.70;40.34
74680;BME280;63211;48.548;2.704;2023-02-08T02:08:21;102711.75;;;17.71;40.02
74680;BME280;63211;48.548;2.704;2023-02-08T02:10:49;102700.88;;;17.71;39.95
74680;BME280;63211;48.548;2.704;2023-02-08T02:13:18;102703.41;;;17.72;39.92
74680;BME280;63211;48.548;2.704;2023-02-08T02:15:46;102706.81;;;17.74;40.44
74680;BME280;63211;48.548;2.704;2023-02-08T02:18:16;102702.22;;;17.75;42.55
74680;BME280;63211;48.548;2.704;2023-02-08T02:21:01;102695.59;;;17.69;44.14
74680;BME280;63211;48.548;2.704;2023-02-08T02:27:12;102691.16;;;17.60;45.27
74680;BME280;63211;48.548;2.704;2023-02-08T02:30:17;102690.66;;;17.57;44.87
74680;BME280;63211;48.548;2.704;2023-02-08T02:33:03;102689.13;;;17.54;44.45
74680;BME280;63211;48.548;2.704;2023-02-08T02:35:42;102685.72;;;17.52;44.50
74680;BME280;63211;48.548;2.704;2023-02-08T02:38:15;102677.19;;;17.55;43.49
74680;BME280;63211;48.548;2.704;2023-02-08T02:40:49;102676.00;;;17.58;42.10
74680;BME280;63211;48.548;2.704;2023-02-08T02:43:27;102675.00;;;17.59;41.58
74680;BME280;63211;48.548;2.704;2023-02-08T02:46:15;102670.22;;;17.61;40.64
74680;BME280;63211;48.548;2.704;2023-02-08T02:48:52;102667.50;;;17.61;40.08
74680;BME280;63211;48.548;2.704;2023-02-08T02:51:24;102667.50;;;17.61;39.86
74680;BME280;63211;48.548;2.704;2023-02-08T02:53:54;102667.31;;;17.62;39.80
74680;BME280;63211;48.548;2.704;2023-02-08T02:56:26;102657.44;;;17.61;39.80
74680;BME280;63211;48.548;2.704;2023-02-08T02:58:57;102663.59;;;17.63;39.51
74680;BME280;63211;48.548;2.704;2023-02-08T03:01:26;102671.63;;;17.65;39.58
74680;BME280;63211;48.548;2.704;2023-02-08T03:03:56;102660.72;;;17.65;39.57
74680;BME280;63211;48.548;2.704;2023-02-08T03:06:34;102656.97;;;17.66;39.29
74680;BME280;63211;48.548;2.704;2023-02-08T03:09:30;102662.41;;;17.66;39.18
74680;BME280;63211;48.548;2.704;2023-02-08T03:12:05;102662.22;;;17.67;39.25
74680;BME280;63211;48.548;2.704;2023-02-08T03:14:45;102677.53;;;17.68;39.15
74680;BME280;63211;48.548;2.704;2023-02-08T03:17:27;102672.94;;;17.69;39.01
74680;BME280;63211;48.548;2.704;2023-02-08T03:20:03;102679.06;;;17.71;38.93
74680;BME280;63211;48.548;2.704;2023-02-08T03:22:39;102681.78;;;17.71;40.49
74680;BME280;63211;48.548;2.704;2023-02-08T03:25:11;102678.41;;;17.69;42.84
74680;BME280;63211;48.548;2.704;2023-02-08T03:27:47;102682.34;;;17.66;44.25
74680;BME280;63211;48.548;2.704;2023-02-08T03:30:17;102677.38;;;17.62;44.45
74680;BME280;63211;48.548;2.704;2023-02-08T03:32:47;102674.31;;;17.57;44.52
74680;BME280;63211;48.548;2.704;2023-02-08T03:35:19;102684.69;;;17.53;44.79
74680;BME280;63211;48.548;2.704;2023-02-08T03:37:52;102688.59;;;17.50;44.27
74680;BME280;63211;48.548;2.704;2023-02-08T03:40:24;102682.31;;;17.50;44.04
74680;BME280;63211;48.548;2.704;2023-02-08T03:42:55;102679.25;;;17.53;42.63
74680;BME280;63211;48.548;2.704;2023-02-08T03:45:27;102691.66;;;17.56;41.68
74680;BME280;63211;48.548;2.704;2023-02-08T03:47:56;102680.59;;;17.57;40.68
74680;BME280;63211;48.548;2.704;2023-02-08T03:50:29;102688.78;;;17.57;39.65
74680;BME280;63211;48.548;2.704;2023-02-08T03:52:59;102681.28;;;17.59;39.62
74680;BME280;63211;48.548;2.704;2023-02-08T03:55:30;102683.16;;;17.59;39.14
74680;BME280;63211;48.548;2.704;2023-02-08T03:57:58;102683.84;;;17.61;39.02
74680;BME280;63211;48.548;2.704;2023-02-08T04:00:30;102683.84;;;17.61;38.85
74680;BME280;63211;48.548;2.704;2023-02-08T04:03:03;102673.78;;;17.61;38.80
74680;BME280;63211;48.548;2.704;2023-02-08T04:05:33;102673.63;;;17.63;38.92
74680;BME280;63211;48.548;2.704;2023-02-08T04:07:59;102668.19;;;17.63;38.84
74680;BME280;63211;48.548;2.704;2023-02-08T04:10:26;102666.31;;;17.63;38.54
74680;BME280;63211;48.548;2.704;2023-02-08T04:12:53;102659.88;;;17.64;38.51
74680;BME280;63211;48.548;2.704;2023-02-08T04:15:19;102658.84;;;17.65;38.66
74680;BME280;63211;48.548;2.704;2023-02-08T04:17:47;102654.25;;;17.66;38.39
74680;BME280;63211;48.548;2.704;2023-02-08T04:20:14;102655.09;;;17.66;38.39
74680;BME280;63211;48.548;2.704;2023-02-08T04:22:42;102656.78;;;17.67;38.35
74680;BME280;63211;48.548;2.704;2023-02-08T04:25:09;102659.31;;;17.69;38.07
74680;BME280;63211;48.548;2.704;2023-02-08T04:27:35;102656.59;;;17.69;39.17
74680;BME280;63211;48.548;2.704;2023-02-08T04:30:03;102652.16;;;17.68;42.80
74680;BME280;63211;48.548;2.704;2023-02-08T04:32:30;102658.97;;;17.64;44.01
74680;BME280;63211;48.548;2.704;2023-02-08T04:34:57;102647.59;;;17.60;44.15
74680;BME280;63211;48.548;2.704;2023-02-08T04:37:23;102647.91;;;17.57;44.30
74680;BME280;63211;48.548;2.704;2023-02-08T04:39:51;102641.97;;;17.53;44.26
74680;BME280;63211;48.548;2.704;2023-02-08T04:42:18;102641.44;;;17.50;44.06
74680;BME280;63211;48.548;2.704;2023-02-08T04:44:45;102635.16;;;17.49;43.80
74680;BME280;63211;48.548;2.704;2023-02-08T04:47:11;102642.31;;;17.50;42.77
74680;BME280;63211;48.548;2.704;2023-02-08T04:49:38;102641.13;;;17.53;40.12
74680;BME280;63211;48.548;2.704;2023-02-08T04:52:04;102637.19;;;17.56;39.55
74680;BME280;63211;48.548;2.704;2023-02-08T04:54:31;102640.78;;;17.56;39.32
74680;BME280;63211;48.548;2.704;2023-02-08T04:56:59;102636.19;;;17.57;38.98
74680;BME280;63211;48.548;2.704;2023-02-08T04:59:26;102633.28;;;17.58;38.53
74680;BME280;63211;48.548;2.704;2023-02-08T05:01:53;102631.41;;;17.59;38.65
74680;BME280;63211;48.548;2.704;2023-02-08T05:04:19;102625.09;;;17.58;38.34
74680;BME280;63211;48.548;2.704;2023-02-08T05:06:46;102621.38;;;17.59;38.45
74680;BME280;63211;48.548;2.704;2023-02-08T05:09:13;102624.09;;;17.59;38.39
74680;BME280;63211;48.548;2.704;2023-02-08T05:11:39;102613.03;;;17.61;37.91
74680;BME280;63211;48.548;2.704;2023-02-08T05:14:08;102613.03;;;17.61;38.10
74680;BME280;63211;48.548;2.704;2023-02-08T05:16:34;102618.47;;;17.61;37.90
74680;BME280;63211;48.548;2.704;2023-02-08T05:19:01;102607.56;;;17.61;37.87
74680;BME280;63211;48.548;2.704;2023-02-08T05:21:28;102610.13;;;17.62;37.54
74680;BME280;63211;48.548;2.704;2023-02-08T05:23:54;102600.94;;;17.63;37.82
74680;BME280;63211;48.548;2.704;2023-02-08T05:26:21;102610.97;;;17.63;37.74
74680;BME280;63211;48.548;2.704;2023-02-08T05:28:48;102614.41;;;17.65;37.73
74680;BME280;63211;48.548;2.704;2023-02-08T05:31:17;102610.66;;;17.66;37.63
74680;BME280;63211;48.548;2.704;2023-02-08T05:33:45;102614.25;;;17.66;37.72
74680;BME280;63211;48.548;2.704;2023-02-08T05:36:12;102616.75;;;17.68;38.10
74680;BME280;63211;48.548;2.704;2023-02-08T05:38:38;102617.78;;;17.67;39.76
74680;BME280;63211;48.548;2.704;2023-02-08T05:41:05;102617.13;;;17.65;43.39
74680;BME280;63211;48.548;2.704;2023-02-08T05:43:32;102614.72;;;17.62;43.79
74680;BME280;63211;48.548;2.704;2023-02-08T05:45:58;102609.78;;;17.57;43.95
74680;BME280;63211;48.548;2.704;2023-02-08T05:48:26;102616.44;;;17.55;43.84
74680;BME280;63211;48.548;2.704;2023-02-08T05:50:53;102618.81;;;17.49;43.77
74680;BME280;63211;48.548;2.704;2023-02-08T05:53:20;102614.41;;;17.48;43.47
74680;BME280;63211;48.548;2.704;2023-02-08T05:55:47;102617.13;;;17.48;43.16
74680;BME280;63211;48.548;2.704;2023-02-08T05:58:14;102625.97;;;17.50;43.04
74680;BME280;63211;48.548;2.704;2023-02-08T06:00:40;102625.78;;;17.52;42.65
74680;BME280;63211;48.548;2.704;2023-02-08T06:03:07;102628.34;;;17.53;42.42
74680;BME280;63211;48.548;2.704;2023-02-08T06:05:36;102632.44;;;17.49;43.46
74680;BME280;63211;48.548;2.704;2023-02-08T06:08:03;102633.28;;;17.50;41.42
74680;BME280;63211;48.548;2.704;2023-02-08T06:10:30;102641.97;;;17.53;41.50
74680;BME280;63211;48.548;2.704;2023-02-08T06:12:56;102642.47;;;17.57;41.56
74680;BME280;63211;48.548;2.704;2023-02-08T06:15:23;102638.72;;;17.58;41.81
74680;BME280;63211;48.548;2.704;2023-02-08T06:17:50;102640.44;;;17.59;41.96
74680;BME280;63211;48.548;2.704;2023-02-08T06:20:17;102642.13;;;17.60;41.96
74680;BME280;63211;48.548;2.704;2023-02-08T06:22:45;102644.50;;;17.63;42.07
74680;BME280;63211;48.548;2.704;2023-02-08T06:25:12;102641.28;;;17.60;42.23
74680;BME280;63211;48.548;2.704;2023-02-08T06:27:38;102640.63;;;17.66;42.18
74680;BME280;63211;48.548;2.704;2023-02-08T06:30:05;102636.19;;;17.65;41.96
74680;BME280;63211;48.548;2.704;2023-02-08T06:32:32;102644.00;;;17.68;42.16
74680;BME280;63211;48.548;2.704;2023-02-08T06:34:58;102633.94;;;17.68;42.24
74680;BME280;63211;48.548;2.704;2023-02-08T06:37:25;102640.25;;;17.69;42.08
74680;BME280;63211;48.548;2.704;2023-02-08T06:39:53;102646.22;;;17.72;42.00
74680;BME280;63211;48.548;2.704;2023-02-08T06:42:20;102652.34;;;17.74;41.84
74680;BME280;63211;48.548;2.704;2023-02-08T06:44:46;102647.91;;;17.73;41.75
74680;BME280;63211;48.548;2.704;2023-02-08T06:47:14;102648.59;;;17.75;41.68
74680;BME280;63211;48.548;2.704;2023-02-08T06:49:41;102644.00;;;17.68;42.59
74680;BME280;63211;48.548;2.704;2023-02-08T06:52:08;102650.13;;;17.62;43.14
74680;BME280;63211;48.548;2.704;2023-02-08T06:54:34;102653.38;;;17.57;43.44
74680;BME280;63211;48.548;2.704;2023-02-08T06:57:02;102652.00;;;17.53;43.79
74680;BME280;63211;48.548;2.704;2023-02-08T06:59:30;102649.47;;;17.51;43.58
74680;BME280;63211;48.548;2.704;2023-02-08T07:01:56;102652.00;;;17.53;43.95
74680;BME280;63211;48.548;2.704;2023-02-08T07:04:23;102653.03;;;17.52;44.09
74680;BME280;63211;48.548;2.704;2023-02-08T07:06:49;102653.72;;;17.54;44.38
74680;BME280;63211;48.548;2.704;2023-02-08T07:09:16;102653.72;;;17.54;44.37
74680;BME280;63211;48.548;2.704;2023-02-08T07:11:43;102654.38;;;17.56;44.61
74680;BME280;63211;48.548;2.704;2023-02-08T07:14:13;102654.38;;;17.56;44.74
74680;BME280;63211;48.548;2.704;2023-02-08T07:16:40;102656.94;;;17.58;44.87
74680;BME280;63211;48.548;2.704;2023-02-08T07:19:06;102659.66;;;17.58;44.93
74680;BME280;63211;48.548;2.704;2023-02-08T07:21:33;102659.16;;;17.62;45.83
74680;BME280;63211;48.548;2.704;2023-02-08T07:24:00;102664.78;;;17.61;45.49
74680;BME280;63211;48.548;2.704;2023-02-08T07:26:26;102656.59;;;17.61;45.40
74680;BME280;63211;48.548;2.704;2023-02-08T07:28:53;102654.72;;;17.61;45.54
74680;BME280;63211;48.548;2.704;2023-02-08T07:31:21;102652.00;;;17.61;45.47
74680;BME280;63211;48.548;2.704;2023-02-08T07:33:47;102652.84;;;17.62;45.53
74680;BME280;63211;48.548;2.704;2023-02-08T07:36:14;102654.56;;;17.63;45.50
74680;BME280;63211;48.548;2.704;2023-02-08T07:38:41;102657.28;;;17.63;45.72
74680;BME280;63211;48.548;2.704;2023-02-08T07:41:10;102661.72;;;17.64;45.85
74680;BME280;63211;48.548;2.704;2023-02-08T07:43:39;102658.97;;;17.64;45.45
74680;BME280;63211;48.548;2.704;2023-02-08T07:46:06;102658.00;;;17.65;45.65
74680;BME280;63211;48.548;2.704;2023-02-08T07:48:35;102663.28;;;17.66;45.63
74680;BME280;63211;48.548;2.704;2023-02-08T07:51:02;102653.41;;;17.65;45.65
74680;BME280;63211;48.548;2.704;2023-02-08T07:53:29;102658.66;;;17.67;45.66
74680;BME280;63211;48.548;2.704;2023-02-08T07:55:56;102651.31;;;17.67;45.61
74680;BME280;63211;48.548;2.704;2023-02-08T07:58:23;102653.41;;;17.65;45.43
74680;BME280;63211;48.548;2.704;2023-02-08T08:00:50;102647.41;;;17.62;45.55
74680;BME280;63211;48.548;2.704;2023-02-08T08:03:17;102648.78;;;17.58;45.52
74680;BME280;63211;48.548;2.704;2023-02-08T08:05:45;102657.28;;;17.55;45.34
74680;BME280;63211;48.548;2.704;2023-02-08T08:08:12;102651.31;;;17.51;45.45
74680;BME280;63211;48.548;2.704;2023-02-08T08:10:38;102653.53;;;17.47;45.43
74680;BME280;63211;48.548;2.704;2023-02-08T08:13:05;102646.59;;;17.45;45.51
74680;BME280;63211;48.548;2.704;2023-02-08T08:15:32;102648.47;;;17.44;45.17
74680;BME280;63211;48.548;2.704;2023-02-08T08:17:58;102650.16;;;17.45;45.26
74680;BME280;63211;48.548;2.704;2023-02-08T08:20:25;102642.66;;;17.47;45.33
74680;BME280;63211;48.548;2.704;2023-02-08T08:22:53;102645.03;;;17.50;45.38
74680;BME280;63211;48.548;2.704;2023-02-08T08:25:20;102639.59;;;17.50;45.57
74680;BME280;63211;48.548;2.704;2023-02-08T08:27:46;102641.13;;;17.53;45.58
74680;BME280;63211;48.548;2.704;2023-02-08T08:30:15;102645.88;;;17.67;46.21
74680;BME280;63211;48.548;2.704;2023-02-08T08:32:42;102634.28;;;17.73;46.38
74680;BME280;63211;48.548;2.704;2023-02-08T08:35:09;102621.56;;;17.66;46.73
74680;BME280;63211;48.548;2.704;2023-02-08T08:37:36;102638.88;;;17.81;46.01
74680;BME280;63211;48.548;2.704;2023-02-08T08:40:06;102631.03;;;17.86;46.25
74680;BME280;63211;48.548;2.704;2023-02-08T08:42:33;102626.06;;;17.90;45.76
74680;BME280;63211;48.548;2.704;2023-02-08T08:45:00;102618.91;;;17.89;45.20
74680;BME280;63211;48.548;2.704;2023-02-08T08:47:27;102621.63;;;17.89;45.88
74680;BME280;63211;48.548;2.704;2023-02-08T08:49:54;102621.47;;;17.90;45.69
74680;BME280;63211;48.548;2.704;2023-02-08T08:52:20;102618.22;;;17.95;44.75
74680;BME280;63211;48.548;2.704;2023-02-08T08:54:47;102616.16;;;17.97;44.54
74680;BME280;63211;48.548;2.704;2023-02-08T08:57:15;102617.88;;;17.98;44.21
74680;BME280;63211;48.548;2.704;2023-02-08T08:59:42;102615.13;;;17.98;43.75
74680;BME280;63211;48.548;2.704;2023-02-08T09:02:10;102607.81;;;17.98;43.73
74680;BME280;63211;48.548;2.704;2023-02-08T09:04:37;102610.03;;;17.95;45.19
74680;BME280;63211;48.548;2.704;2023-02-08T09:07:05;102602.56;;;17.89;45.19
74680;BME280;63211;48.548;2.704;2023-02-08T09:09:33;102610.94;;;17.87;45.24
74680;BME280;63211;48.548;2.704;2023-02-08T09:11:59;102603.59;;;17.88;45.12
74680;BME280;63211;48.548;2.704;2023-02-08T09:14:27;102608.22;;;17.87;45.04
74680;BME280;63211;48.548;2.704;2023-02-08T09:16:54;102607.66;;;17.92;44.53
74680;BME280;63211;48.548;2.704;2023-02-08T09:19:20;102610.03;;;17.95;43.81
74680;BME280;63211;48.548;2.704;2023-02-08T09:21:48;102604.25;;;17.98;43.19
74680;BME280;63211;48.548;2.704;2023-02-08T09:24:14;102608.84;;;17.97;42.56
74680;BME280;63211;48.548;2.704;2023-02-08T09:26:41;102602.38;;;17.98;42.53
74680;BME280;63211;48.548;2.704;2023-02-08T09:29:10;102595.22;;;17.97;42.52
74680;BME280;63211;48.548;2.704;2023-02-08T09:31:38;102591.47;;;17.98;42.45
74680;BME280;63211;48.548;2.704;2023-02-08T09:34:06;102594.19;;;17.98;42.20
74680;BME280;63211;48.548;2.704;2023-02-08T09:36:35;102589.59;;;17.99;41.99
74680;BME280;63211;48.548;2.704;2023-02-08T09:39:06;102578.84;;;17.97;42.00
74680;BME280;63211;48.548;2.704;2023-02-08T09:41:47;102593.16;;;17.99;41.90
74680;BME280;63211;48.548;2.704;2023-02-08T09:44:23;102595.03;;;17.99;41.97
74680;BME280;63211;48.548;2.704;2023-02-08T09:47:00;102591.47;;;17.98;41.60
74680;BME280;63211;48.548;2.704;2023-02-08T09:49:32;102600.50;;;17.99;41.46
74680;BME280;63211;48.548;2.704;2023-02-08T09:52:03;102601.50;;;17.98;41.49
74680;BME280;63211;48.548;2.704;2023-02-08T09:54:35;102600.50;;;17.99;41.40
74680;BME280;63211;48.548;2.704;2023-02-08T09:57:05;102596.91;;;17.98;41.66
74680;BME280;63211;48.548;2.704;2023-02-08T09:59:37;102597.75;;;17.99;41.12
74680;BME280;63211;48.548;2.704;2023-02-08T10:02:16;102604.41;;;17.96;41.45
74680;BME280;63211;48.548;2.704;2023-02-08T10:04:54;102608.16;;;17.95;41.36
74680;BME280;63211;48.548;2.704;2023-02-08T10:07:23;102603.06;;;17.92;41.67
74680;BME280;63211;48.548;2.704;2023-02-08T10:09:51;102597.78;;;17.91;41.83
74680;BME280;63211;48.548;2.704;2023-02-08T10:12:28;102597.97;;;17.89;41.71
74680;BME280;63211;48.548;2.704;2023-02-08T10:15:08;102600.84;;;17.88;41.47
74680;BME280;63211;48.548;2.704;2023-02-08T10:18:03;102593.91;;;17.85;40.99
74680;BME280;63211;48.548;2.704;2023-02-08T10:20:49;102594.94;;;17.84;40.97
74680;BME280;63211;48.548;2.704;2023-02-08T10:23:26;102594.94;;;17.84;40.79
74680;BME280;63211;48.548;2.704;2023-02-08T10:26:07;102591.53;;;17.82;40.57
74680;BME280;63211;48.548;2.704;2023-02-08T10:28:46;102594.94;;;17.84;40.71
74680;BME280;63211;48.548;2.704;2023-02-08T10:31:24;102594.25;;;17.82;40.93
74680;BME280;63211;48.548;2.704;2023-02-08T10:34:00;102598.19;;;17.79;42.13
74680;BME280;63211;48.548;2.704;2023-02-08T10:36:30;102599.72;;;17.82;41.17
74680;BME280;63211;48.548;2.704;2023-02-08T10:38:58;102597.34;;;17.79;41.28
74680;BME280;63211;48.548;2.704;2023-02-08T10:41:30;102592.91;;;17.78;41.44
74680;BME280;63211;48.548;2.704;2023-02-08T10:44:00;102599.38;;;17.77;41.42
74680;BME280;63211;48.548;2.704;2023-02-08T10:46:34;102606.88;;;17.75;41.46
74680;BME280;63211;48.548;2.704;2023-02-08T10:49:11;102600.56;;;17.74;41.41
74680;BME280;63211;48.548;2.704;2023-02-08T10:51:40;102597.19;;;17.72;41.61
74680;BME280;63211;48.548;2.704;2023-02-08T10:54:09;102591.03;;;17.70;41.58
74680;BME280;63211;48.548;2.704;2023-02-08T10:56:42;102584.06;;;17.68;41.69
74680;BME280;63211;48.548;2.704;2023-02-08T10:59:16;102586.78;;;17.68;41.78
74680;BME280;63211;48.548;2.704;2023-02-08T11:01:45;102584.28;;;17.66;41.75
74680;BME280;63211;48.548;2.704;2023-02-08T11:04:15;102579.00;;;17.65;41.65
74680;BME280;63211;48.548;2.704;2023-02-08T11:06:43;102580.00;;;17.64;41.70
74680;BME280;63211;48.548;2.704;2023-02-08T11:09:20;102584.75;;;17.62;41.38
74680;BME280;63211;48.548;2.704;2023-02-08T11:11:47;102585.09;;;17.59;41.70
74680;BME280;63211;48.548;2.704;2023-02-08T11:14:18;102592.59;;;17.57;41.37
74680;BME280;63211;48.548;2.704;2023-02-08T11:16:49;102588.16;;;17.56;41.36
74680;BME280;63211;48.548;2.704;2023-02-08T11:19:21;102590.22;;;17.53;41.09
74680;BME280;63211;48.548;2.704;2023-02-08T11:21:50;102592.09;;;17.53;41.09
74680;BME280;63211;48.548;2.704;2023-02-08T11:24:27;102592.44;;;17.50;41.09
74680;BME280;63211;48.548;2.704;2023-02-08T11:26:55;102580.69;;;17.49;41.20
74680;BME280;63211;48.548;2.704;2023-02-08T11:29:23;102581.72;;;17.48;41.33
74680;BME280;63211;48.548;2.704;2023-02-08T11:31:59;102579.16;;;17.47;41.22
74680;BME280;63211;48.548;2.704;2023-02-08T11:34:29;102574.56;;;17.47;41.56
74680;BME280;63211;48.548;2.704;2023-02-08T11:36:57;102567.41;;;17.46;41.11
74680;BME280;63211;48.548;2.704;2023-02-08T11:39:28;102574.06;;;17.52;41.34
74680;BME280;63211;48.548;2.704;2023-02-08T11:41:59;102573.06;;;17.45;41.22
74680;BME280;63211;48.548;2.704;2023-02-08T11:44:30;102566.41;;;17.47;41.33
74680;BME280;63211;48.548;2.704;2023-02-08T11:46:58;102562.66;;;17.48;41.52
74680;BME280;63211;48.548;2.704;2023-02-08T11:49:31;102568.28;;;17.47;41.69
74680;BME280;63211;48.548;2.704;2023-02-08T11:52:01;102561.81;;;17.48;41.54
74680;BME280;63211;48.548;2.704;2023-02-08T11:54:36;102562.66;;;17.48;41.65
74680;BME280;63211;48.548;2.704;2023-02-08T11:57:16;102559.94;;;17.48;41.85
74680;BME280;63211;48.548;2.704;2023-02-08T11:59:44;102549.72;;;17.50;41.82
74680;BME280;63211;48.548;2.704;2023-02-08T12:02:24;102543.41;;;17.50;41.90
74680;BME280;63211;48.548;2.704;2023-02-08T12:04:53;102545.97;;;17.51;41.88
74680;BME280;63211;48.548;2.704;2023-02-08T12:07:23;102548.88;;;17.50;41.85
74680;BME280;63211;48.548;2.704;2023-02-08T12:13:07;102539.84;;;17.49;41.76
74680;BME280;63211;48.548;2.704;2023-02-08T12:15:45;102534.56;;;17.48;41.50
74680;BME280;63211;48.548;2.704;2023-02-08T12:18:32;102534.75;;;17.46;41.61
74680;BME280;63211;48.548;2.704;2023-02-08T12:21:08;102536.63;;;17.46;41.16
74680;BME280;63211;48.548;2.704;2023-02-08T12:23:46;102522.69;;;17.41;41.53
74680;BME280;63211;48.548;2.704;2023-02-08T12:26:22;102524.22;;;17.43;41.58
74680;BME280;63211;48.548;2.704;2023-02-08T12:29:07;102520.66;;;17.43;41.73
74680;BME280;63211;48.548;2.704;2023-02-08T12:31:49;102515.38;;;17.41;41.54
74680;BME280;63211;48.548;2.704;2023-02-08T12:34:24;102520.66;;;17.43;41.68
74680;BME280;63211;48.548;2.704;2023-02-08T12:37:05;102507.03;;;17.43;41.11
74680;BME280;63211;48.548;2.704;2023-02-08T12:40:00;102506.88;;;17.44;41.28
74680;BME280;63211;48.548;2.704;2023-02-08T12:42:57;102498.69;;;17.44;41.63
74680;BME280;63211;48.548;2.704;2023-02-08T12:45:46;102500.41;;;17.45;40.00
74680;BME280;63211;48.548;2.704;2023-02-08T12:48:27;102493.91;;;17.46;40.91
74680;BME280;63211;48.548;2.704;2023-02-08T12:51:05;102481.97;;;17.47;38.91
74680;BME280;63211;48.548;2.704;2023-02-08T12:53:39;102483.69;;;17.48;40.29
74680;BME280;63211;48.548;2.704;2023-02-08T12:56:12;102481.81;;;17.49;41.64
74680;BME280;63211;48.548;2.704;2023-02-08T12:58:44;102470.06;;;17.48;40.86
74680;BME280;63211;48.548;2.704;2023-02-08T13:01:14;102473.47;;;17.50;40.23
74680;BME280;63211;48.548;2.704;2023-02-08T13:03:47;102460.88;;;17.49;39.20
74680;BME280;63211;48.548;2.704;2023-02-08T13:06:16;102456.28;;;17.50;39.49
74680;BME280;63211;48.548;2.704;2023-02-08T13:08:48;102457.13;;;17.50;39.48
74680;BME280;63211;48.548;2.704;2023-02-08T13:11:23;102454.41;;;17.50;39.84